Time,TemperatureF,DewpointF,PressureIn,WindDirection,WindDirectionDegrees,WindSpeedMPH,WindSpeedGustMPH,Humidity,HourlyPrecipIn,Conditions,Clouds,dailyrainin,SoftwareType,DateUTC
2013-02-08 00:09:00,49.8,46.4,29.68,ENE,67,0.0,-999.0,88,-99.99,,,0.00,Acu-Link.com,2013-02-08 06:09:00,
2013-02-08 00:24:00,51.1,49.1,29.68,ESE,112,0.0,-999.0,93,-99.99,,,0.00,Acu-Link.com,2013-02-08 06:24:00,
2013-02-08 00:39:00,52.5,52.0,29.69,ESE,112,0.0,-999.0,98,-99.99,,,0.00,Acu-Link.com,2013-02-08 06:39:00,
2013-02-08 00:54:00,54.0,53.4,29.69,ESE,112,0.0,-999.0,98,-99.99,,,0.00,Acu-Link.com,2013-02-08 06:54:00,
2013-02-08 01:09:00,53.6,53.0,29.70,SSE,157,0.0,-999.0,98,-99.99,,,0.00,Acu-Link.com,2013-02-08 07:09:00,
2013-02-08 01:25:00,54.3,53.7,29.70,ESE,112,1.1,-999.0,98,-99.99,,,0.00,Acu-Link.com,2013-02-08 07:25:00,
2013-02-08 01:40:00,54.9,54.3,29.70,SSE,157,0.0,-999.0,98,-99.99,,,0.00,Acu-Link.com,2013-02-08 07:40:00,
2013-02-08 01:55:00,54.5,53.9,29.70,ESE,112,0.0,-999.0,98,-99.99,,,0.00,Acu-Link.com,2013-02-08 07:55:00,
2013-02-08 02:10:00,54.5,53.9,29.69,SSE,157,0.0,-999.0,98,-99.99,,,0.00,Acu-Link.com,2013-02-08 08:10:00,
2013-02-08 02:25:00,54.5,53.9,29.70,SSE,157,0.0,-999.0,98,-99.99,,,0.00,Acu-Link.com,2013-02-08 08:25:00,
2013-02-08 02:40:00,54.7,54.1,29.70,NNE,22,0.0,-999.0,98,-99.99,,,0.00,Acu-Link.com,2013-02-08 08:40:00,
2013-02-08 02:55:00,54.7,54.1,29.70,NW,315,0.0,-999.0,98,-99.99,,,0.00,Acu-Link.com,2013-02-08 08:55:00,
2013-02-08 03:10:00,54.9,54.3,29.70,South,180,0.0,-999.0,98,-99.99,,,0.00,Acu-Link.com,2013-02-08 09:10:00,
2013-02-08 03:25:00,54.5,53.9,29.70,SSE,157,0.0,-999.0,98,-99.99,,,0.00,Acu-Link.com,2013-02-08 09:25:00,
2013-02-08 03:41:00,53.2,52.6,29.70,SSE,157,0.0,-999.0,98,-99.99,,,0.00,Acu-Link.com,2013-02-08 09:41:00,
2013-02-08 03:56:00,52.3,51.8,29.70,ESE,112,0.0,-999.0,98,-99.99,,,0.00,Acu-Link.com,2013-02-08 09:56:00,
2013-02-08 04:11:00,51.6,51.1,29.70,West,270,0.0,-999.0,98,-99.99,,,0.00,Acu-Link.com,2013-02-08 10:11:00,
2013-02-08 04:26:00,50.9,50.4,29.71,NW,315,0.0,-999.0,98,-99.99,,,0.00,Acu-Link.com,2013-02-08 10:26:00,
2013-02-08 04:41:00,50.5,50.0,29.71,NW,315,0.0,-999.0,98,-99.99,,,0.00,Acu-Link.com,2013-02-08 10:41:00,
2013-02-08 04:56:00,51.1,50.6,29.72,WNW,292,0.0,-999.0,98,-99.99,,,0.00,Acu-Link.com,2013-02-08 10:56:00,
2013-02-08 05:11:00,51.3,50.8,29.72,WNW,292,0.0,-999.0,98,-99.99,,,0.00,Acu-Link.com,2013-02-08 11:11:00,
2013-02-08 05:26:00,51.8,51.3,29.73,SW,225,0.0,-999.0,98,-99.99,,,0.00,Acu-Link.com,2013-02-08 11:26:00,
2013-02-08 05:41:00,52.0,51.5,29.73,SW,225,0.0,-999.0,98,-99.99,,,0.00,Acu-Link.com,2013-02-08 11:41:00,
2013-02-08 05:57:00,52.5,52.0,29.74,SW,225,0.0,-999.0,98,-99.99,,,0.00,Acu-Link.com,2013-02-08 11:57:00,
2013-02-08 06:12:00,52.9,52.4,29.74,SW,225,0.0,-999.0,98,-99.99,,,0.00,Acu-Link.com,2013-02-08 12:12:00,
2013-02-08 06:27:00,52.3,51.8,29.74,SW,225,0.0,-999.0,98,-99.99,,,0.00,Acu-Link.com,2013-02-08 12:27:00,
2013-02-08 06:42:00,51.4,50.9,29.75,SSE,157,0.0,-999.0,98,-99.99,,,0.00,Acu-Link.com,2013-02-08 12:42:00,
2013-02-08 06:57:00,50.7,50.2,29.75,SSE,157,0.0,-999.0,98,-99.99,,,0.00,Acu-Link.com,2013-02-08 12:57:00,
2013-02-08 07:12:00,50.5,50.0,29.75,NW,315,0.0,-999.0,98,-99.99,,,0.00,Acu-Link.com,2013-02-08 13:12:00,
2013-02-08 07:27:00,51.1,50.6,29.76,NW,315,0.0,-999.0,98,-99.99,,,0.00,Acu-Link.com,2013-02-08 13:27:00,
2013-02-08 07:42:00,52.7,52.2,29.77,SSE,157,0.0,-999.0,98,-99.99,,,0.00,Acu-Link.com,2013-02-08 13:42:00,
2013-02-08 07:57:00,54.0,53.4,29.78,South,180,0.0,-999.0,98,-99.99,,,0.00,Acu-Link.com,2013-02-08 13:57:00,
2013-02-08 08:13:00,55.4,54.8,29.78,South,180,0.0,-999.0,98,-99.99,,,0.00,Acu-Link.com,2013-02-08 14:13:00,
2013-02-08 08:28:00,56.5,55.9,29.79,North,0,3.2,-999.0,98,-99.99,,,0.00,Acu-Link.com,2013-02-08 14:28:00,
2013-02-08 08:43:00,57.4,56.8,29.80,WNW,292,3.7,-999.0,98,-99.99,,,0.00,Acu-Link.com,2013-02-08 14:43:00,
2013-02-08 08:58:00,58.5,57.9,29.79,NE,45,5.8,-999.0,98,-99.99,,,0.00,Acu-Link.com,2013-02-08 14:58:00,
2013-02-08 09:13:00,58.8,39.7,29.80,NNE,22,4.7,-999.0,49,-99.99,,,0.00,Acu-Link.com,2013-02-08 15:13:00,
2013-02-08 09:28:00,58.6,-41.7,29.82,NNE,22,6.8,-999.0,1,-99.99,,,0.00,Acu-Link.com,2013-02-08 15:28:00,
2013-02-08 09:43:00,58.6,-41.7,29.83,NNW,337,3.2,-999.0,1,-99.99,,,0.00,Acu-Link.com,2013-02-08 15:43:00,
2013-02-08 09:58:00,58.3,-41.9,29.84,NNW,337,4.2,-999.0,1,-99.99,,,0.00,Acu-Link.com,2013-02-08 15:58:00,
2013-02-08 10:13:00,58.5,-41.8,29.84,NNE,22,6.3,-999.0,1,-99.99,,,0.00,Acu-Link.com,2013-02-08 16:13:00,
2013-02-08 10:29:00,58.5,-41.8,29.85,NNE,22,7.3,-999.0,1,-99.99,,,0.00,Acu-Link.com,2013-02-08 16:29:00,
2013-02-08 10:44:00,59.4,-41.2,29.86,NNW,337,12.5,-999.0,1,-99.99,,,0.00,Acu-Link.com,2013-02-08 16:44:00,
2013-02-08 10:59:00,57.9,-42.1,29.86,North,0,13.5,-999.0,1,-99.99,,,0.00,Acu-Link.com,2013-02-08 16:59:00,
2013-02-08 11:14:00,56.8,-42.8,29.87,NE,45,6.3,-999.0,1,-99.99,,,0.00,Acu-Link.com,2013-02-08 17:14:00,
2013-02-08 11:29:00,56.7,-42.9,29.87,NW,315,6.8,-999.0,1,-99.99,,,0.00,Acu-Link.com,2013-02-08 17:29:00,
2013-02-08 11:44:00,55.8,-43.4,29.88,WNW,292,4.7,-999.0,1,-99.99,,,0.00,Acu-Link.com,2013-02-08 17:44:00,
2013-02-08 11:59:00,55.6,-43.5,29.88,West,270,4.7,-999.0,1,-99.99,,,0.00,Acu-Link.com,2013-02-08 17:59:00,
2013-02-08 12:14:00,55.6,-43.5,29.88,NNE,22,4.7,-999.0,1,-99.99,,,0.00,Acu-Link.com,2013-02-08 18:14:00,
2013-02-08 12:29:00,55.4,-43.7,29.88,West,270,5.8,-999.0,1,-99.99,,,0.00,Acu-Link.com,2013-02-08 18:29:00,
2013-02-08 12:45:00,55.2,-43.8,29.87,NNW,337,6.8,-999.0,1,-99.99,,,0.00,Acu-Link.com,2013-02-08 18:45:00,
2013-02-08 13:00:00,56.7,-42.9,29.87,NNE,22,5.3,-999.0,1,-99.99,,,0.00,Acu-Link.com,2013-02-08 19:00:00,
2013-02-08 13:15:00,55.8,-43.4,29.87,West,270,6.8,-999.0,1,-99.99,,,0.00,Acu-Link.com,2013-02-08 19:15:00,
2013-02-08 13:30:00,55.2,-43.8,29.87,NW,315,9.9,-999.0,1,-99.99,,,0.00,Acu-Link.com,2013-02-08 19:30:00,
2013-02-08 13:45:00,55.4,-43.7,29.88,NE,45,5.8,-999.0,1,-99.99,,,0.00,Acu-Link.com,2013-02-08 19:45:00,
2013-02-08 14:00:00,55.6,-43.5,29.87,North,0,3.2,-999.0,1,-99.99,,,0.00,Acu-Link.com,2013-02-08 20:00:00,
2013-02-08 14:15:00,55.0,-43.9,29.88,West,270,5.8,-999.0,1,-99.99,,,0.00,Acu-Link.com,2013-02-08 20:15:00,
2013-02-08 14:30:00,55.2,-43.8,29.89,NNE,22,5.8,-999.0,1,-99.99,,,0.00,Acu-Link.com,2013-02-08 20:30:00,
2013-02-08 14:45:00,56.8,32.7,29.88,NE,45,3.7,-999.0,40,-99.99,,,0.00,Acu-Link.com,2013-02-08 20:45:00,
2013-02-08 15:01:00,56.8,32.1,29.89,NE,45,2.7,-999.0,39,-99.99,,,0.00,Acu-Link.com,2013-02-08 21:01:00,
2013-02-08 15:16:00,56.5,-43.0,29.89,ENE,67,2.7,-999.0,1,-99.99,,,0.00,Acu-Link.com,2013-02-08 21:16:00,
2013-02-08 15:31:00,56.5,-43.0,29.89,North,0,6.3,-999.0,1,-99.99,,,0.00,Acu-Link.com,2013-02-08 21:31:00,
2013-02-08 15:46:00,55.8,-43.4,29.89,NW,315,6.8,-999.0,1,-99.99,,,0.00,Acu-Link.com,2013-02-08 21:46:00,
2013-02-08 16:01:00,55.4,5.4,29.90,NNW,337,3.7,-999.0,13,-99.99,,,0.00,Acu-Link.com,2013-02-08 22:01:00,
2013-02-08 16:16:00,55.2,54.1,29.90,NNW,337,7.3,-999.0,96,-99.99,,,0.00,Acu-Link.com,2013-02-08 22:16:00,
2013-02-08 16:31:00,54.7,49.6,29.90,NNE,22,5.3,-999.0,83,-99.99,,,0.00,Acu-Link.com,2013-02-08 22:31:00,
2013-02-08 16:46:00,54.0,19.0,29.89,NNE,22,5.3,-999.0,25,-99.99,,,0.00,Acu-Link.com,2013-02-08 22:46:00,
2013-02-08 17:01:00,53.6,-32.8,29.89,NW,315,3.7,-999.0,2,-99.99,,,0.00,Acu-Link.com,2013-02-08 23:01:00,
2013-02-08 17:17:00,53.2,-45.0,29.90,NE,45,6.8,-999.0,1,-99.99,,,0.00,Acu-Link.com,2013-02-08 23:17:00,
2013-02-08 17:32:00,53.1,-45.1,29.90,NE,45,4.2,-999.0,1,-99.99,,,0.00,Acu-Link.com,2013-02-08 23:32:00,
2013-02-08 17:47:00,52.9,-45.2,29.91,NNE,22,1.1,-999.0,1,-99.99,,,0.00,Acu-Link.com,2013-02-08 23:47:00,
2013-02-08 18:02:00,52.2,-45.6,29.91,NNE,22,2.7,-999.0,1,-99.99,,,0.00,Acu-Link.com,2013-02-09 00:02:00,
2013-02-08 18:17:00,51.6,-46.0,29.92,NE,45,3.2,-999.0,1,-99.99,,,0.00,Acu-Link.com,2013-02-09 00:17:00,
2013-02-08 18:32:00,52.0,-45.7,29.93,NE,45,1.7,-999.0,1,-99.99,,,0.00,Acu-Link.com,2013-02-09 00:32:00,
2013-02-08 18:47:00,52.0,-45.7,29.93,East,90,0.0,-999.0,1,-99.99,,,0.00,Acu-Link.com,2013-02-09 00:47:00,
2013-02-08 19:02:00,50.5,-46.6,29.94,NE,45,1.7,-999.0,1,-99.99,,,0.00,Acu-Link.com,2013-02-09 01:02:00,
2013-02-08 19:17:00,49.1,-47.5,29.95,NNE,22,0.0,-999.0,1,-99.99,,,0.00,Acu-Link.com,2013-02-09 01:17:00,
2013-02-08 19:33:00,47.3,-48.6,29.95,WNW,292,0.0,-999.0,1,-99.99,,,0.00,Acu-Link.com,2013-02-09 01:33:00,
2013-02-08 19:48:00,45.7,-49.6,29.96,WNW,292,0.0,-999.0,1,-99.99,,,0.00,Acu-Link.com,2013-02-09 01:48:00,
2013-02-08 20:03:00,44.8,-50.1,29.96,NNE,22,0.0,-999.0,1,-99.99,,,0.00,Acu-Link.com,2013-02-09 02:03:00,
2013-02-08 20:18:00,43.9,-50.7,29.96,NNW,337,0.0,-999.0,1,-99.99,,,0.00,Acu-Link.com,2013-02-09 02:18:00,
2013-02-08 20:33:00,43.0,-51.2,29.97,NNW,337,0.0,-999.0,1,-99.99,,,0.00,Acu-Link.com,2013-02-09 02:33:00,
2013-02-08 20:48:00,42.4,-51.6,29.97,NW,315,0.0,-999.0,1,-99.99,,,0.00,Acu-Link.com,2013-02-09 02:48:00,
2013-02-08 21:03:00,41.9,-51.9,29.98,NW,315,0.0,-999.0,1,-99.99,,,0.00,Acu-Link.com,2013-02-09 03:03:00,
2013-02-08 21:18:00,42.1,-51.8,29.98,ENE,67,0.0,-999.0,1,-99.99,,,0.00,Acu-Link.com,2013-02-09 03:18:00,
2013-02-08 21:33:00,43.7,-50.8,29.99,NNE,22,0.0,-999.0,1,-99.99,,,0.00,Acu-Link.com,2013-02-09 03:33:00,
2013-02-08 21:49:00,43.9,-50.7,29.98,NE,45,2.2,-999.0,1,-99.99,,,0.00,Acu-Link.com,2013-02-09 03:49:00,
2013-02-08 22:04:00,43.5,-50.9,29.98,ENE,67,2.2,-999.0,1,-99.99,,,0.00,Acu-Link.com,2013-02-09 04:04:00,
2013-02-08 22:19:00,43.5,-50.9,29.97,NE,45,1.7,-999.0,1,-99.99,,,0.00,Acu-Link.com,2013-02-09 04:19:00,
2013-02-08 22:34:00,43.3,-51.1,29.97,NE,45,3.7,-999.0,1,-99.99,,,0.00,Acu-Link.com,2013-02-09 04:34:00,
2013-02-08 22:49:00,43.3,-51.1,29.98,NNE,22,1.7,-999.0,1,-99.99,,,0.00,Acu-Link.com,2013-02-09 04:49:00,
2013-02-08 23:04:00,42.8,-51.4,29.98,NE,45,4.7,-999.0,1,-99.99,,,0.00,Acu-Link.com,2013-02-09 05:04:00,
2013-02-08 23:19:00,42.6,-51.5,29.98,NNE,22,2.7,-999.0,1,-99.99,,,0.00,Acu-Link.com,2013-02-09 05:19:00,
2013-02-08 23:34:00,41.9,-51.9,29.98,NE,45,1.1,-999.0,1,-99.99,,,0.00,Acu-Link.com,2013-02-09 05:34:00,
2013-02-08 23:49:00,41.7,-52.1,29.98,NE,45,1.7,-999.0,1,-99.99,,,0.00,Acu-Link.com,2013-02-09 05:49:00,